Time;durP1;ratioP1;P1;durP2;ratioP2;P2;SDS_P1;SDS_P2;PMS_P1;PMS_P2;Temp;Humidity;BMP_temperature;BMP_pressure;BME280_temperature;BME280_humidity;BME280_pressure;Samples;Min_cycle;Max_cycle;Signal;HPM_P1;HPM_P2
2022/08/18 00:00:37;;;;;;;20.75;12.05;;;716.80;1868.80;;;;;;5015076;28;20033;-77
2022/08/18 00:03:07;;;;;;;15.75;11.20;;;716.80;1868.80;;;;;;5014521;28;20123;-81
2022/08/18 00:05:34;;;;;;;17.35;10.30;;;716.80;1868.80;;;;;;5014880;28;20026;-81
2022/08/18 00:08:00;;;;;;;19.70;10.75;;;716.80;1868.80;;;;;;5000693;28;20093;-83
2022/08/18 00:10:26;;;;;;;18.20;10.13;;;716.90;1868.80;;;;;;4978179;28;20090;-80
2022/08/18 00:12:52;;;;;;;17.17;9.95;;;716.90;1868.80;;;;;;4994963;28;20061;-81
2022/08/18 00:15:20;;;;;;;19.02;9.73;;;717.00;1868.80;;;;;;4994641;28;20492;-77
2022/08/18 00:17:46;;;;;;;16.13;10.15;;;717.00;1868.80;;;;;;4994749;28;20129;-81
2022/08/18 00:20:17;;;;;;;14.43;9.07;;;717.10;1843.20;;;;;;4994606;28;20034;-82
2022/08/18 00:22:43;;;;;;;16.13;9.07;;;717.10;1843.20;;;;;;4994683;28;20022;-76
2022/08/18 00:25:11;;;;;;;19.42;9.40;;;717.10;1843.20;;;;;;4994507;28;20032;-75
2022/08/18 00:27:38;;;;;;;17.77;8.93;;;717.20;1843.20;;;;;;4994685;28;20027;-75
2022/08/18 00:30:07;;;;;;;14.93;8.77;;;717.20;1817.60;;;;;;4977258;28;20389;-76
2022/08/18 00:32:40;;;;;;;17.85;9.00;;;717.10;1843.20;;;;;;4994620;28;20026;-83
2022/08/18 00:35:13;;;;;;;16.10;8.27;;;717.10;1843.20;;;;;;4994258;28;20407;-76
2022/08/18 00:37:40;;;;;;;18.52;9.57;;;717.10;1843.20;;;;;;4994244;28;20085;-76
2022/08/18 00:40:09;;;;;;;12.98;8.73;;;717.00;1843.20;;;;;;4994293;28;20038;-82
2022/08/18 00:42:42;;;;;;;27.23;9.68;;;717.10;1843.20;;;;;;4994277;28;20050;-82
2022/08/18 00:45:12;;;;;;;18.65;9.93;;;716.90;1868.80;;;;;;4994397;28;20027;-79
2022/08/18 00:47:37;;;;;;;15.02;9.95;;;716.90;1868.80;;;;;;4976742;28;20114;-82
2022/08/18 00:50:04;;;;;;;16.77;10.60;;;716.90;1868.80;;;;;;4994503;28;20089;-82
2022/08/18 00:52:30;;;;;;;16.55;10.45;;;716.80;1894.40;;;;;;4994325;28;20023;-83
2022/08/18 00:54:56;;;;;;;12.85;9.18;;;692.10;1894.40;;;;;;4994176;28;20030;-78
2022/08/18 00:57:23;;;;;;;21.05;11.27;;;692.10;1920.00;;;;;;4994184;28;20065;-76
2022/08/18 01:00:06;;;;;;;22.05;10.93;;;691.90;1945.60;;;;;;4994261;28;20423;-81
2022/08/18 01:02:36;;;;;;;23.48;11.73;;;691.90;1996.80;;;;;;4994205;28;20019;-80
2022/08/18 01:05:23;;;;;;;21.33;10.77;;;691.80;2022.40;;;;;;4994197;28;20093;-83
2022/08/18 01:07:50;;;;;;;14.95;10.88;;;691.80;2022.40;;;;;;4993815;28;20053;-77
2022/08/18 01:10:22;;;;;;;19.63;11.43;;;691.80;2048.00;;;;;;4994132;28;20384;-77
2022/08/18 01:12:53;;;;;;;18.25;10.55;;;691.80;2073.60;;;;;;4976799;28;20098;-76
2022/08/18 01:15:21;;;;;;;19.70;11.45;;;691.90;2073.60;;;;;;4993823;28;20087;-82
2022/08/18 01:23:22;;;;;;;16.15;10.15;;;691.90;2150.40;;;;;;4994151;28;20033;-81
2022/08/18 01:25:59;;;;;;;19.27;9.95;;;691.80;2150.40;;;;;;4993997;28;20030;-77
2022/08/18 01:28:36;;;;;;;12.40;9.93;;;691.70;2176.00;;;;;;4993925;28;20050;-77
2022/08/18 01:31:02;;;;;;;19.45;10.13;;;691.70;2201.60;;;;;;4993850;28;20034;-78
2022/08/18 01:33:35;;;;;;;14.90;11.13;;;691.70;2201.60;;;;;;4994284;28;20362;-83
2022/08/18 01:36:16;;;;;;;13.93;9.98;;;691.80;2201.60;;;;;;4993595;28;20129;-80
2022/08/18 01:38:49;;;;;;;16.17;9.85;;;691.70;2201.60;;;;;;4993659;28;20023;-80
2022/08/18 01:41:15;;;;;;;12.48;10.30;;;691.70;2201.60;;;;;;4993353;28;20066;-81
2022/08/18 01:43:41;;;;;;;16.67;9.95;;;691.70;2201.60;;;;;;4993820;28;20019;-81
2022/08/18 01:46:07;;;;;;;17.27;9.00;;;691.60;2201.60;;;;;;4993765;28;20034;-77
2022/08/18 01:48:35;;;;;;;13.00;8.77;;;691.50;2227.20;;;;;;4994251;28;20053;-79
2022/08/18 01:51:04;;;;;;;14.80;8.65;;;691.40;2252.80;;;;;;4993798;28;20023;-82
2022/08/18 01:53:30;;;;;;;12.90;8.10;;;691.40;2227.20;;;;;;4993937;28;20022;-81
2022/08/18 01:55:56;;;;;;;14.13;8.50;;;691.40;2227.20;;;;;;4993926;28;20037;-83
2022/08/18 01:58:26;;;;;;;11.68;8.15;;;691.20;2252.80;;;;;;4993893;28;20376;-84
2022/08/18 02:00:56;;;;;;;18.25;9.38;;;691.30;2304.00;;;;;;4994159;28;20030;-85
2022/08/18 02:03:25;;;;;;;13.70;8.57;;;666.30;2304.00;;;;;;4986588;28;20060;-80
2022/08/18 02:06:01;;;;;;;20.58;8.57;;;666.20;2329.60;;;;;;5002013;28;20033;-77
2022/08/18 02:08:27;;;;;;;22.17;10.13;;;666.20;2329.60;;;;;;4999611;28;20105;-84
2022/08/18 02:10:53;;;;;;;15.07;8.55;;;691.20;2304.00;;;;;;5001718;28;20030;-84
2022/08/18 02:13:19;;;;;;;15.60;9.10;;;666.20;2329.60;;;;;;4983488;28;20114;-80
2022/08/18 02:15:45;;;;;;;11.63;8.23;;;666.20;2355.20;;;;;;5002934;28;20125;-84
2022/08/18 02:18:21;;;;;;;11.88;7.55;;;666.20;2355.20;;;;;;5002328;28;20027;-78
2022/08/18 02:20:46;;;;;;;12.02;7.95;;;666.20;2406.40;;;;;;4999611;28;20480;-76
2022/08/18 02:23:13;;;;;;;13.27;8.43;;;666.10;2406.40;;;;;;5001503;28;20026;-78
2022/08/18 02:25:41;;;;;;;10.15;7.32;;;666.10;2432.00;;;;;;4977516;28;20061;-82
2022/08/18 02:28:07;;;;;;;13.40;7.47;;;666.20;2432.00;;;;;;4977309;28;20105;-76
2022/08/18 02:30:36;;;;;;;12.15;8.73;;;666.20;2432.00;;;;;;4996354;28;20097;-81
2022/08/18 02:33:06;;;;;;;11.30;7.88;;;666.20;2432.00;;;;;;4980005;28;20038;-81
2022/08/18 02:35:32;;;;;;;11.93;7.60;;;666.20;2432.00;;;;;;4997160;28;20070;-84
2022/08/18 02:37:58;;;;;;;13.90;7.85;;;666.20;2432.00;;;;;;4979211;28;20065;-84
2022/08/18 02:40:24;;;;;;;13.20;7.47;;;666.30;2432.00;;;;;;4997177;28;20580;-85
2022/08/18 02:42:51;;;;;;;13.18;7.88;;;666.30;2432.00;;;;;;4995867;28;20078;-85
2022/08/18 02:45:18;;;;;;;11.50;7.25;;;666.20;2432.00;;;;;;4995690;28;20034;-85
2022/08/18 02:47:44;;;;;;;12.73;8.15;;;666.00;2432.00;;;;;;5003575;28;20058;-78
2022/08/18 02:50:11;;;;;;;16.00;7.93;;;665.70;2432.00;;;;;;5004387;28;20054;-83
2022/08/18 02:52:37;;;;;;;14.82;8.40;;;665.60;2432.00;;;;;;5005589;28;20116;-79
2022/08/18 02:55:03;;;;;;;17.23;9.15;;;640.90;2432.00;;;;;;5005665;28;20031;-77
2022/08/18 02:57:30;;;;;;;12.05;8.38;;;640.70;2432.00;;;;;;5010665;28;20152;-81
2022/08/18 02:59:56;;;;;;;29.45;9.45;;;640.70;2432.00;;;;;;4979458;28;20030;-80
2022/08/18 03:02:22;;;;;;;13.73;8.30;;;640.40;2380.80;;;;;;4979116;28;20436;-88
2022/08/18 03:04:50;;;;;;;14.18;9.20;;;640.40;2329.60;;;;;;4990490;28;20042;-87
2022/08/18 03:07:16;;;;;;;13.32;8.60;;;640.40;2329.60;;;;;;4977854;28;20019;-82
2022/08/18 03:09:42;;;;;;;13.68;8.32;;;640.30;2329.60;;;;;;4977751;28;20142;-78
2022/08/18 03:12:09;;;;;;;14.15;8.90;;;640.30;2329.60;;;;;;4995111;28;20054;-80
2022/08/18 03:14:36;;;;;;;11.23;8.80;;;640.20;2329.60;;;;;;4992229;28;20015;-75
2022/08/18 03:17:07;;;;;;;19.75;10.20;;;640.10;2329.60;;;;;;4986004;28;20041;-78
2022/08/18 03:19:33;;;;;;;9.70;8.07;;;640.00;2329.60;;;;;;4968131;28;20029;-76
2022/08/18 03:21:59;;;;;;;12.35;9.27;;;640.00;2355.20;;;;;;4966181;28;20118;-82
2022/08/18 03:24:27;;;;;;;17.90;9.10;;;615.30;2380.80;;;;;;4984285;28;20049;-75
2022/08/18 03:26:55;;;;;;;14.82;8.10;;;615.30;2355.20;;;;;;4984735;28;20081;-77
2022/08/18 03:29:22;;;;;;;15.82;8.73;;;640.00;2355.20;;;;;;4982235;28;20030;-77
2022/08/18 03:31:49;;;;;;;16.25;8.50;;;640.00;2355.20;;;;;;4966267;28;20473;-76
2022/08/18 03:34:20;;;;;;;15.38;9.10;;;640.00;2355.20;;;;;;4967349;28;20077;-78
2022/08/18 03:36:49;;;;;;;16.00;9.20;;;640.00;2355.20;;;;;;4968392;28;20435;-76
2022/08/18 03:39:16;;;;;;;15.38;8.35;;;640.00;2355.20;;;;;;4985248;28;20018;-76
2022/08/18 03:41:43;;;;;;;18.75;8.40;;;640.10;2355.20;;;;;;4983825;28;20134;-76
2022/08/18 03:44:11;;;;;;;14.60;9.05;;;640.20;2355.20;;;;;;4985909;28;20033;-81
2022/08/18 03:46:39;;;;;;;17.45;9.18;;;640.20;2355.20;;;;;;4989589;28;20030;-82
2022/08/18 03:49:04;;;;;;;18.67;9.73;;;640.10;2406.40;;;;;;4984031;28;20067;-82
2022/08/18 03:51:31;;;;;;;17.40;9.40;;;640.00;2432.00;;;;;;4994098;28;20015;-81
2022/08/18 03:53:59;;;;;;;17.30;8.93;;;615.30;2432.00;;;;;;4978108;28;20046;-77
2022/08/18 03:56:29;;;;;;;12.93;8.88;;;615.30;2432.00;;;;;;4995898;28;20532;-83
2022/08/18 03:59:08;;;;;;;12.27;9.88;;;615.20;2432.00;;;;;;4996090;28;20022;-84
2022/08/18 04:01:40;;;;;;;13.52;8.95;;;615.00;2432.00;;;;;;5008351;28;20080;-84
2022/08/18 04:04:14;;;;;;;18.20;8.98;;;615.00;2432.00;;;;;;5012458;28;20018;-85
2022/08/18 04:06:50;;;;;;;24.13;10.50;;;615.10;2432.00;;;;;;5003074;28;20032;-84
2022/08/18 04:09:16;;;;;;;;;;;615.00;2432.00;;;;;;4995578;28;20105;-79
2022/08/18 04:11:43;;;;;;;19.10;9.52;;;615.00;2432.00;;;;;;4995224;28;19925;-84
2022/08/18 04:14:10;;;;;;;15.35;10.82;;;615.10;2432.00;;;;;;4988522;28;20035;-77
2022/08/18 04:16:37;;;;;;;22.38;10.48;;;615.20;2432.00;;;;;;4988879;28;20034;-83
2022/08/18 04:19:04;;;;;;;15.07;9.27;;;615.30;2432.00;;;;;;4984108;28;20018;-78
2022/08/18 04:21:32;;;;;;;17.92;10.15;;;615.30;2432.00;;;;;;4982195;28;20026;-76
2022/08/18 04:24:03;;;;;;;26.40;10.43;;;640.00;2432.00;;;;;;4981327;28;20058;-82
2022/08/18 04:26:34;;;;;;;22.67;9.45;;;640.00;2432.00;;;;;;4994607;28;20106;-77
2022/08/18 04:29:00;;;;;;;20.70;9.13;;;640.20;2432.00;;;;;;5003072;28;21064;-82
2022/08/18 04:31:28;;;;;;;17.17;9.32;;;640.20;2432.00;;;;;;4981903;28;20026;-80
2022/08/18 04:33:55;;;;;;;17.30;8.43;;;640.20;2432.00;;;;;;5004078;28;20021;-82
2022/08/18 04:36:22;;;;;;;13.98;9.35;;;640.20;2432.00;;;;;;4980965;28;20026;-81
2022/08/18 04:38:48;;;;;;;15.02;9.25;;;640.40;2432.00;;;;;;5011800;28;20022;-79
2022/08/18 04:41:14;;;;;;;20.73;10.30;;;640.10;2432.00;;;;;;4982645;28;20484;-79
2022/08/18 04:43:41;;;;;;;21.60;11.52;;;640.20;2432.00;;;;;;4980466;28;20032;-79
2022/08/18 04:46:07;;;;;;;17.83;11.23;;;640.40;2432.00;;;;;;4976473;28;20038;-77
2022/08/18 04:48:37;;;;;;;22.35;10.85;;;640.40;2432.00;;;;;;4993859;28;20026;-81
2022/08/18 04:51:10;;;;;;;18.58;11.05;;;640.20;2432.00;;;;;;4994069;28;20018;-82
2022/08/18 04:53:46;;;;;;;20.90;10.80;;;640.20;2432.00;;;;;;4970832;28;20049;-79
2022/08/18 04:56:25;;;;;;;18.00;10.27;;;640.20;2432.00;;;;;;4988257;28;20504;-82
2022/08/18 04:58:53;;;;;;;17.25;10.63;;;640.30;2432.00;;;;;;4970667;28;20121;-82
2022/08/18 05:01:22;;;;;;;19.73;11.23;;;640.30;2432.00;;;;;;4996841;28;20034;-77
2022/08/18 05:03:49;;;;;;;17.60;9.95;;;640.20;2432.00;;;;;;4993536;28;20114;-79
2022/08/18 05:06:16;;;;;;;21.85;10.63;;;640.40;2432.00;;;;;;4994420;28;20045;-85
2022/08/18 05:08:41;;;;;;;17.63;11.13;;;640.30;2432.00;;;;;;4993885;28;20026;-84
2022/08/18 05:11:08;;;;;;;29.92;11.80;;;640.60;2432.00;;;;;;4977016;28;20027;-85
2022/08/18 05:13:34;;;;;;;17.70;10.88;;;640.60;2432.00;;;;;;4977075;28;20027;-84
2022/08/18 05:16:03;;;;;;;21.77;11.52;;;640.60;2432.00;;;;;;4993766;28;20542;-82
2022/08/18 05:18:30;;;;;;;22.15;11.07;;;640.70;2432.00;;;;;;4993905;28;20026;-79
2022/08/18 05:20:57;;;;;;;22.80;10.52;;;640.70;2432.00;;;;;;4976826;28;20041;-83
2022/08/18 05:23:23;;;;;;;16.25;10.95;;;665.60;2432.00;;;;;;4994179;28;20018;-82
2022/08/18 05:25:49;;;;;;;19.75;10.07;;;665.80;2432.00;;;;;;4993969;28;20038;-82
2022/08/18 05:28:18;;;;;;;13.88;9.43;;;665.80;2432.00;;;;;;4976386;28;20035;-81
2022/08/18 05:30:43;;;;;;;15.65;9.73;;;665.70;2432.00;;;;;;4976173;28;20026;-81
2022/08/18 05:33:10;;;;;;;18.02;10.18;;;665.70;2432.00;;;;;;4993780;28;20026;-79
2022/08/18 05:35:42;;;;;;;16.85;10.18;;;665.90;2432.00;;;;;;4989252;28;20042;-81
2022/08/18 05:38:25;;;;;;;15.00;9.23;;;666.00;2432.00;;;;;;4994053;28;20054;-83
2022/08/18 05:41:05;;;;;;;15.68;9.65;;;666.10;2432.00;;;;;;4993569;28;20033;-82
2022/08/18 05:43:31;;;;;;;32.65;12.13;;;666.20;2432.00;;;;;;4961538;28;20039;-82
2022/08/18 05:46:00;;;;;;;16.30;9.80;;;666.30;2432.00;;;;;;4982962;28;20023;-84
2022/08/18 05:48:26;;;;;;;24.25;10.50;;;666.30;2432.00;;;;;;4966524;28;20027;-83
2022/08/18 05:50:54;;;;;;;22.20;10.15;;;666.50;2432.00;;;;;;4982129;28;20134;-77
2022/08/18 05:56:45;;;;;;;17.33;9.70;;;691.30;2432.00;;;;;;4982705;28;20555;-84
2022/08/18 05:58:54;;;;;;;13.27;10.23;;;691.40;2406.40;;;;;;4984865;28;20038;-79
2022/08/18 06:01:29;;;;;;;15.70;9.40;;;691.60;2432.00;;;;;;4982665;28;20023;-82
2022/08/18 06:04:00;;;;;;;12.32;8.93;;;691.60;2406.40;;;;;;4993016;28;20041;-84
2022/08/18 06:06:29;;;;;;;11.98;8.77;;;691.70;2380.80;;;;;;4976621;28;20039;-79
2022/08/18 06:09:13;;;;;;;19.50;9.48;;;691.80;2329.60;;;;;;4979582;28;20062;-82
2022/08/18 06:11:39;;;;;;;15.77;8.57;;;691.90;2278.40;;;;;;4997432;28;20058;-85
2022/08/18 06:14:05;;;;;;;13.52;8.63;;;692.10;2278.40;;;;;;4988716;28;20050;-80
2022/08/18 06:16:59;;;;;;;12.82;8.27;;;716.90;2227.20;;;;;;4966961;28;20058;-78
2022/08/18 06:19:43;;;;;;;15.77;9.43;;;716.90;2227.20;;;;;;4983523;28;20034;-84
2022/08/18 06:22:32;;;;;;;16.02;8.85;;;717.00;2227.20;;;;;;4991228;28;20027;-85
2022/08/18 06:25:11;;;;;;;13.35;8.38;;;717.10;2176.00;;;;;;4974233;28;20041;-80
2022/08/18 06:28:09;;;;;;;13.65;8.43;;;717.30;2150.40;;;;;;4996975;28;20026;-80
2022/08/18 06:30:41;;;;;;;13.32;7.88;;;717.40;2124.80;;;;;;4920952;29;20393;-82
2022/08/18 06:33:09;;;;;;;13.68;7.22;;;717.50;2124.80;;;;;;4937127;29;20430;-79
2022/08/18 06:35:42;;;;;;;14.02;7.70;;;717.50;2073.60;;;;;;4919933;29;20100;-81
2022/08/18 06:38:39;;;;;;;11.38;6.78;;;717.70;2022.40;;;;;;4919057;29;20523;-78
2022/08/18 06:41:31;;;;;;;11.90;7.20;;;742.40;2048.00;;;;;;4935697;29;20063;-79
2022/08/18 06:44:03;;;;;;;11.60;6.93;;;742.50;2022.40;;;;;;4936298;29;20048;-78
2022/08/18 06:46:40;;;;;;;12.57;6.85;;;742.70;1971.20;;;;;;4936615;29;20037;-78
2022/08/18 06:49:13;;;;;;;10.75;7.10;;;742.80;1920.00;;;;;;4936651;29;20108;-78
2022/08/18 06:51:40;;;;;;;10.32;6.65;;;742.90;1945.60;;;;;;4919527;29;20061;-78
2022/08/18 06:54:21;;;;;;;19.88;6.60;;;743.00;1868.80;;;;;;4919521;29;20032;-81
2022/08/18 06:56:50;;;;;;;9.63;6.07;;;743.10;1894.40;;;;;;4935033;29;20532;-81
2022/08/18 06:59:33;;;;;;;8.52;6.30;;;743.10;1817.60;;;;;;4935517;29;20493;-81
2022/08/18 07:02:22;;;;;;;14.23;6.47;;;743.30;1766.40;;;;;;4920279;29;20032;-81
2022/08/18 07:05:04;;;;;;;10.57;6.68;;;768.10;1792.00;;;;;;4935711;29;20050;-81
2022/08/18 07:07:37;;;;;;;10.40;5.80;;;768.10;1740.80;;;;;;4967157;28;20030;-78
2022/08/18 07:10:14;;;;;;;9.52;6.05;;;768.10;1766.40;;;;;;4992905;28;20035;-80
2022/08/18 07:12:40;;;;;;;12.85;5.72;;;768.20;1740.80;;;;;;4984861;28;20026;-83
2022/08/18 07:15:06;;;;;;;8.25;5.55;;;768.40;1740.80;;;;;;4968421;28;20389;-80
2022/08/18 07:17:40;;;;;;;7.75;5.82;;;768.50;1715.20;;;;;;4987358;28;20477;-78
2022/08/18 07:20:22;;;;;;;9.02;5.80;;;768.60;1664.00;;;;;;4989258;28;20039;-84
2022/08/18 07:23:03;;;;;;;9.20;5.20;;;768.70;1689.60;;;;;;4986008;28;20019;-84
2022/08/18 07:25:36;;;;;;;7.97;5.13;;;768.80;1638.40;;;;;;4987947;28;20019;-79
2022/08/18 07:28:03;;;;;;;10.02;5.00;;;768.80;1612.80;;;;;;4987081;28;20023;-81
2022/08/18 07:30:38;;;;;;;7.07;4.80;;;768.90;1587.20;;;;;;4984069;28;20026;-78
2022/08/18 07:33:03;;;;;;;6.43;4.93;;;793.70;1612.80;;;;;;4987054;28;20030;-78
2022/08/18 07:35:44;;;;;;;8.45;4.63;;;793.70;1612.80;;;;;;4985880;28;20046;-76
2022/08/18 07:38:19;;;;;;;9.85;4.90;;;793.70;1587.20;;;;;;4971824;28;20027;-82
2022/08/18 07:40:57;;;;;;;8.73;5.50;;;794.00;1561.60;;;;;;4992398;28;20035;-76
2022/08/18 07:43:37;;;;;;;8.27;5.35;;;794.00;1587.20;;;;;;4984911;28;20365;-78
2022/08/18 07:46:17;;;;;;;11.15;6.03;;;794.10;1561.60;;;;;;4995698;28;20077;-79
2022/08/18 07:48:43;;;;;;;7.28;5.03;;;794.20;1587.20;;;;;;4978463;28;20058;-82
2022/08/18 07:51:12;;;;;;;8.35;5.45;;;794.20;1536.00;;;;;;4984792;28;20108;-79
2022/08/18 07:53:43;;;;;;;8.48;5.55;;;794.40;1536.00;;;;;;4977618;28;20207;-78
2022/08/18 07:56:28;;;;;;;6.18;4.70;;;794.50;1510.40;;;;;;4978149;28;20117;-79
2022/08/18 07:59:28;;;;;;;9.13;5.40;;;794.50;1484.80;;;;;;4987159;28;20077;-78
2022/08/18 08:01:53;;;;;;;13.30;5.93;;;819.50;1510.40;;;;;;5002460;28;20030;-79
2022/08/18 08:04:57;;;;;;;8.68;5.07;;;819.30;1536.00;;;;;;5004353;28;20080;-76
2022/08/18 08:07:50;;;;;;;10.00;6.40;;;819.30;1536.00;;;;;;5003248;28;20480;-75
2022/08/18 08:10:28;;;;;;;8.20;5.65;;;819.40;1510.40;;;;;;4976849;28;20039;-80
2022/08/18 08:13:14;;;;;;;9.98;6.25;;;819.50;1536.00;;;;;;5000952;28;20499;-76
2022/08/18 08:16:15;;;;;;;9.73;5.53;;;819.60;1484.80;;;;;;5004910;28;20607;-76
2022/08/18 08:19:06;;;;;;;11.63;6.30;;;819.70;1510.40;;;;;;4980193;28;20037;-76
2022/08/18 08:21:39;;;;;;;9.05;6.07;;;819.80;1510.40;;;;;;4980626;28;20077;-82
2022/08/18 08:24:29;;;;;;;10.75;6.35;;;819.80;1484.80;;;;;;4979555;28;20027;-76
2022/08/18 08:27:14;;;;;;;12.15;6.47;;;819.90;1484.80;;;;;;4982156;28;20026;-78
2022/08/18 08:30:06;;;;;;;8.77;5.82;;;819.90;1459.20;;;;;;4983150;28;20030;-78
2022/08/18 08:32:46;;;;;;;8.32;5.43;;;820.00;1484.80;;;;;;4982012;28;20022;-83
2022/08/18 08:35:42;;;;;;;12.75;5.60;;;820.10;1536.00;;;;;;4981584;28;20056;-79
2022/08/18 08:38:14;;;;;;;9.15;6.07;;;820.10;1510.40;;;;;;4988532;28;20033;-78
2022/08/18 08:40:51;;;;;;;12.75;6.55;;;820.10;1536.00;;;;;;4987526;28;20567;-80
2022/08/18 08:43:34;;;;;;;11.48;6.00;;;820.10;1536.00;;;;;;4982513;28;20042;-77
2022/08/18 08:46:16;;;;;;;9.77;6.45;;;844.80;1536.00;;;;;;4984079;28;20026;-77
2022/08/18 08:49:08;;;;;;;8.95;5.57;;;844.80;1510.40;;;;;;4969021;28;20030;-77
2022/08/18 08:52:13;;;;;;;9.77;6.65;;;844.90;1536.00;;;;;;4933095;29;20035;-79
2022/08/18 08:55:05;;;;;;;13.27;6.00;;;844.90;1536.00;;;;;;4857496;29;20488;-77
2022/08/18 08:57:37;;;;;;;13.18;6.70;;;844.90;1510.40;;;;;;4848058;29;20129;-82
2022/08/18 09:00:08;;;;;;;15.98;5.80;;;845.00;1510.40;;;;;;4858321;29;20501;-82
2022/08/18 09:03:07;;;;;;;9.93;5.90;;;845.00;1459.20;;;;;;4857846;29;20434;-77
2022/08/18 09:06:31;;;;;;;7.15;5.55;;;845.10;1484.80;;;;;;4857377;29;20112;-82
2022/08/18 09:09:23;;;;;;;8.63;5.43;;;845.20;1484.80;;;;;;4811284;29;20045;-76
2022/08/18 09:12:08;;;;;;;11.02;5.82;;;845.30;1459.20;;;;;;4821418;29;20050;-77
2022/08/18 09:14:46;;;;;;;9.05;5.80;;;845.40;1433.60;;;;;;4826288;29;20038;-75
2022/08/18 09:17:39;;;;;;;6.18;5.15;;;845.50;1433.60;;;;;;4831347;29;20079;-78
2022/08/18 09:20:29;;;;;;;10.10;5.57;;;845.60;1408.00;;;;;;4833944;29;20030;-75
2022/08/18 09:23:13;;;;;;;11.25;5.18;;;845.70;1408.00;;;;;;4822585;29;20050;-80
2022/08/18 09:25:42;;;;;;;9.05;4.90;;;845.70;1382.40;;;;;;4833775;29;20173;-74
2022/08/18 09:28:11;;;;;;;6.07;4.63;;;870.40;1356.80;;;;;;4841063;29;20071;-84
2022/08/18 09:30:45;;;;;;;8.05;4.72;;;870.50;1356.80;;;;;;4892895;28;20528;-83
2022/08/18 09:33:21;;;;;;;8.07;4.68;;;870.60;1356.80;;;;;;4951707;28;20038;-85
2022/08/18 09:36:11;;;;;;;9.07;4.90;;;870.70;1280.00;;;;;;4933027;29;20051;-80
2022/08/18 09:41:44;;;;;;;9.93;5.32;;;870.90;1254.40;;;;;;4959995;28;20094;-80
2022/08/18 09:44:13;;;;;;;8.80;4.60;;;871.10;1280.00;;;;;;4965704;28;20376;-80
2022/08/18 09:46:42;;;;;;;7.88;4.35;;;871.30;1228.80;;;;;;4980237;28;20046;-83
2022/08/18 09:49:25;;;;;;;7.45;4.65;;;871.20;1203.20;;;;;;4997751;28;20554;-81
2022/08/18 09:52:20;;;;;;;8.00;4.15;;;896.00;1228.80;;;;;;4997951;28;20030;-81
2022/08/18 09:55:01;;;;;;;7.93;4.75;;;896.10;1203.20;;;;;;4997519;28;20034;-81
2022/08/18 09:57:32;;;;;;;9.57;4.80;;;896.20;1203.20;;;;;;4986121;28;20053;-82
2022/08/18 10:00:24;;;;;;;6.65;4.50;;;896.50;1203.20;;;;;;5006554;28;20034;-88
2022/08/18 10:03:09;;;;;;;20.65;5.43;;;896.70;1152.00;;;;;;4990023;28;20017;-84
2022/08/18 10:05:35;;;;;;;11.77;4.57;;;896.90;1152.00;;;;;;5003115;28;20026;-80
2022/08/18 10:08:06;;;;;;;6.15;4.65;;;896.90;1126.40;;;;;;4995128;28;20432;-81
2022/08/18 10:10:50;;;;;;;6.90;4.30;;;921.70;1152.00;;;;;;4979407;28;20399;-83
2022/08/18 10:13:49;;;;;;;6.53;4.72;;;921.80;1152.00;;;;;;5001688;28;20022;-81
2022/08/18 10:16:27;;;;;;;7.10;5.03;;;921.90;1152.00;;;;;;5000693;28;20077;-81
2022/08/18 10:19:14;;;;;;;11.60;4.85;;;922.20;1152.00;;;;;;4976073;28;20093;-77
2022/08/18 10:21:54;;;;;;;11.25;5.35;;;922.20;1126.40;;;;;;4975753;28;20038;-77
2022/08/18 10:24:22;;;;;;;6.78;5.20;;;922.40;1100.80;;;;;;5001076;28;20058;-81
2022/08/18 10:26:48;;;;;;;8.85;5.28;;;922.40;1100.80;;;;;;5008117;28;20033;-85
2022/08/18 10:29:22;;;;;;;7.50;5.20;;;922.50;1100.80;;;;;;5016449;28;20105;-77
2022/08/18 10:31:54;;;;;;;8.35;4.80;;;947.20;1100.80;;;;;;5016528;28;20025;-80
2022/08/18 10:34:40;;;;;;;6.50;4.90;;;947.40;1100.80;;;;;;5016312;28;20030;-76
2022/08/18 10:37:19;;;;;;;9.88;4.60;;;947.60;1100.80;;;;;;4975418;28;20043;-77
2022/08/18 10:39:49;;;;;;;9.02;4.45;;;947.70;1075.20;;;;;;4975293;28;20046;-80
2022/08/18 10:42:38;;;;;;;9.52;5.45;;;947.90;1049.60;;;;;;4974850;28;20401;-76
2022/08/18 10:45:12;;;;;;;7.40;4.40;;;948.10;1075.20;;;;;;4975254;28;20035;-78
2022/08/18 10:47:38;;;;;;;8.77;4.97;;;948.10;1075.20;;;;;;4974377;28;20035;-82
2022/08/18 10:50:18;;;;;;;6.40;4.85;;;972.80;1100.80;;;;;;4975548;28;20139;-83
2022/08/18 10:52:53;;;;;;;14.23;5.80;;;972.80;1100.80;;;;;;4975304;28;20023;-85
2022/08/18 10:55:24;;;;;;;9.82;5.00;;;972.80;1100.80;;;;;;4975402;28;20097;-81
2022/08/18 10:58:08;;;;;;;10.27;5.10;;;973.10;1100.80;;;;;;4975307;28;20114;-86
2022/08/18 11:00:54;;;;;;;6.57;4.88;;;972.80;1075.20;;;;;;4958553;28;20138;-84
2022/08/18 11:03:22;;;;;;;8.38;4.97;;;973.00;1049.60;;;;;;4959278;28;20114;-90
2022/08/18 11:05:48;;;;;;;7.97;4.57;;;973.10;1049.60;;;;;;4975407;28;20117;-82
2022/08/18 11:08:18;;;;;;;7.68;4.43;;;973.20;1024.00;;;;;;4958881;28;20077;-84
2022/08/18 11:10:47;;;;;;;7.10;5.93;;;973.30;1024.00;;;;;;4958531;28;20045;-82
2022/08/18 11:13:38;;;;;;;8.10;4.72;;;973.30;1024.00;;;;;;4978736;28;20127;-80
2022/08/18 11:16:23;;;;;;;11.85;5.35;;;973.40;998.40;;;;;;5015635;28;20054;-78
2022/08/18 11:18:57;;;;;;;8.88;4.13;;;973.40;972.80;;;;;;4998028;28;20379;-78
2022/08/18 11:21:32;;;;;;;6.95;4.38;;;973.40;972.80;;;;;;5015473;28;20025;-85
2022/08/18 11:24:20;;;;;;;6.22;4.03;;;973.50;972.80;;;;;;5005307;28;20026;-85
2022/08/18 11:26:51;;;;;;;7.13;4.43;;;973.40;972.80;;;;;;4977925;28;20065;-85
2022/08/18 11:29:35;;;;;;;10.90;4.50;;;973.60;998.40;;;;;;4971426;28;20053;-81
2022/08/18 11:32:37;;;;;;;17.92;5.18;;;973.40;998.40;;;;;;4968127;28;20113;-80
2022/08/18 11:35:11;;;;;;;11.02;4.47;;;973.50;998.40;;;;;;4984127;28;20537;-80
2022/08/18 11:37:40;;;;;;;6.80;5.05;;;973.60;998.40;;;;;;4985410;28;20121;-80
2022/08/18 11:40:23;;;;;;;11.80;4.78;;;998.40;1024.00;;;;;;4970214;28;20026;-80
2022/08/18 11:43:11;;;;;;;4.90;3.80;;;998.40;972.80;;;;;;4983700;28;20050;-79
2022/08/18 11:45:45;;;;;;;8.43;4.88;;;998.40;972.80;;;;;;4985213;28;20030;-76
2022/08/18 11:48:14;;;;;;;7.95;3.95;;;973.60;921.60;;;;;;4985439;28;20026;-76
2022/08/18 11:50:48;;;;;;;8.95;4.20;;;973.60;947.20;;;;;;4984976;28;20022;-80
2022/08/18 11:53:50;;;;;;;8.17;4.60;;;998.40;947.20;;;;;;4985918;28;20026;-81
2022/08/18 11:56:19;;;;;;;8.45;4.82;;;998.50;947.20;;;;;;4993872;28;20050;-78
2022/08/18 11:58:50;;;;;;;7.47;4.50;;;998.60;947.20;;;;;;4995438;28;20078;-79
2022/08/18 12:01:37;;;;;;;6.97;4.47;;;998.80;947.20;;;;;;4995353;28;20026;-82
2022/08/18 12:04:09;;;;;;;10.32;4.93;;;998.70;947.20;;;;;;4977673;28;20384;-77
2022/08/18 12:06:38;;;;;;;6.00;4.13;;;998.80;947.20;;;;;;4995154;28;20018;-76
2022/08/18 12:09:24;;;;;;;7.18;4.80;;;998.80;947.20;;;;;;4977596;28;20033;-76
2022/08/18 12:12:15;;;;;;;6.55;4.57;;;998.90;947.20;;;;;;4994031;28;20041;-78
2022/08/18 12:14:58;;;;;;;11.90;4.78;;;998.80;947.20;;;;;;4994828;28;20033;-80
2022/08/18 12:17:25;;;;;;;5.63;4.15;;;998.60;947.20;;;;;;4995086;28;20045;-80
2022/08/18 12:19:51;;;;;;;6.72;3.88;;;998.40;947.20;;;;;;4995015;28;20499;-84
2022/08/18 12:22:26;;;;;;;4.82;3.75;;;998.40;947.20;;;;;;4994805;28;20491;-82
2022/08/18 12:24:52;;;;;;;7.68;4.55;;;998.60;947.20;;;;;;4994941;28;20050;-80
2022/08/18 12:27:22;;;;;;;10.45;4.53;;;998.50;947.20;;;;;;4994661;28;20030;-81
2022/08/18 12:29:54;;;;;;;7.10;4.32;;;998.60;947.20;;;;;;4995325;28;20034;-83
2022/08/18 12:32:21;;;;;;;10.88;5.47;;;998.80;947.20;;;;;;4994873;28;20546;-80
2022/08/18 12:34:48;;;;;;;12.40;4.88;;;998.80;947.20;;;;;;4994718;28;20030;-82
2022/08/18 12:37:20;;;;;;;8.00;4.32;;;998.90;921.60;;;;;;4995018;28;20102;-84
2022/08/18 12:39:46;;;;;;;7.45;4.32;;;998.90;921.60;;;;;;4994382;28;20053;-79
2022/08/18 12:42:12;;;;;;;13.00;4.55;;;998.90;921.60;;;;;;4976978;28;20054;-85
2022/08/18 12:44:40;;;;;;;6.63;4.60;;;998.60;921.60;;;;;;4994296;28;20033;-85
2022/08/18 12:47:19;;;;;;;4.97;4.00;;;999.00;921.60;;;;;;4994431;28;20033;-79
2022/08/18 12:49:45;;;;;;;7.47;4.38;;;999.00;921.60;;;;;;4993123;28;20026;-78
2022/08/18 12:52:11;;;;;;;12.43;4.47;;;998.80;921.60;;;;;;4994565;28;20029;-78
2022/08/18 12:54:37;;;;;;;7.35;4.25;;;998.90;921.60;;;;;;4994580;28;20030;-82